Time,TemperatureF,DewpointF,PressureIn,WindDirection,WindDirectionDegrees,WindSpeedMPH,WindSpeedGustMPH,Humidity,HourlyPrecipIn,Conditions,Clouds,dailyrainin,SolarRadiationWatts/m^2,SoftwareType,DateUTC
2013-02-19 00:01:00,8.0,-2.0,-100.00,WSW,256,0.0,0.0,62,-99.99,,,-99.99,0.000000,,2013-02-19 07:01:00,
2013-02-19 00:42:00,8.0,-3.0,-100.00,WSW,254,0.0,0.0,61,-99.99,,,-99.99,0.000000,,2013-02-19 07:42:00,
2013-02-19 00:52:00,8.0,-3.0,-100.00,WSW,254,0.0,0.0,61,-99.99,,,-99.99,0.000000,,2013-02-19 07:52:00,
2013-02-19 01:01:00,8.0,-3.0,-100.00,WSW,254,0.0,0.0,61,-99.99,,,-99.99,0.000000,,2013-02-19 08:01:00,
2013-02-19 01:42:00,9.0,-4.0,-100.00,West,267,0.0,0.0,55,-99.99,,,-99.99,0.000000,,2013-02-19 08:42:00,
2013-02-19 01:52:00,9.0,-4.0,-100.00,West,267,0.0,0.0,55,-99.99,,,-99.99,0.000000,,2013-02-19 08:52:00,
2013-02-19 02:01:00,9.0,-4.0,-100.00,West,267,0.0,0.0,55,-99.99,,,-99.99,0.000000,,2013-02-19 09:01:00,
2013-02-19 02:42:00,10.0,-5.0,-100.00,WSW,238,0.0,0.0,50,-99.99,,,-99.99,0.000000,,2013-02-19 09:42:00,
2013-02-19 02:53:00,10.0,-5.0,-100.00,WSW,238,0.0,0.0,50,-99.99,,,-99.99,0.000000,,2013-02-19 09:53:00,
2013-02-19 03:01:00,10.0,-5.0,-100.00,WSW,238,0.0,0.0,50,-99.99,,,-99.99,0.000000,,2013-02-19 10:01:00,
2013-02-19 03:42:00,13.0,-2.0,-100.00,West,259,5.0,7.0,51,-99.99,,,-99.99,0.000000,,2013-02-19 10:42:00,
2013-02-19 03:52:00,13.0,-2.0,-100.00,West,259,5.0,7.0,51,-99.99,,,-99.99,0.000000,,2013-02-19 10:52:00,
2013-02-19 04:01:00,13.0,-2.0,-100.00,West,259,5.0,7.0,51,-99.99,,,-99.99,0.000000,,2013-02-19 11:01:00,
2013-02-19 04:11:00,13.0,-2.0,-100.00,West,259,5.0,7.0,51,-99.99,,,-99.99,0.000000,,2013-02-19 11:11:00,
2013-02-19 04:42:00,14.0,0.0,-100.00,NW,311,2.0,6.0,53,-99.99,,,-99.99,0.000000,,2013-02-19 11:42:00,
2013-02-19 04:52:00,14.0,0.0,-100.00,NW,311,2.0,6.0,53,-99.99,,,-99.99,0.000000,,2013-02-19 11:52:00,
2013-02-19 05:01:00,14.0,0.0,-100.00,NW,311,2.0,6.0,53,-99.99,,,-99.99,0.000000,,2013-02-19 12:01:00,
2013-02-19 05:12:00,14.0,0.0,-100.00,NW,311,2.0,6.0,53,-99.99,,,-99.99,0.000000,,2013-02-19 12:12:00,
2013-02-19 05:42:00,16.0,1.0,-100.00,West,265,1.0,5.0,50,-99.99,,,-99.99,0.000000,,2013-02-19 12:42:00,
2013-02-19 05:52:00,16.0,1.0,-100.00,West,265,1.0,5.0,50,-99.99,,,-99.99,0.000000,,2013-02-19 12:52:00,
2013-02-19 06:02:00,16.0,1.0,-100.00,West,265,1.0,5.0,50,-99.99,,,-99.99,0.000000,,2013-02-19 13:02:00,
2013-02-19 06:11:00,16.0,1.0,-100.00,West,265,1.0,5.0,50,-99.99,,,-99.99,0.000000,,2013-02-19 13:11:00,
2013-02-19 06:42:00,16.0,3.0,-100.00,WSW,241,0.0,6.0,56,-99.99,,,-99.99,0.000000,,2013-02-19 13:42:00,
2013-02-19 06:52:00,16.0,3.0,-100.00,WSW,241,0.0,6.0,56,-99.99,,,-99.99,0.000000,,2013-02-19 13:52:00,
2013-02-19 07:01:00,16.0,3.0,-100.00,WSW,241,0.0,6.0,56,-99.99,,,-99.99,0.000000,,2013-02-19 14:01:00,
2013-02-19 07:11:00,16.0,3.0,-100.00,WSW,241,0.0,6.0,56,-99.99,,,-99.99,0.000000,,2013-02-19 14:11:00,
2013-02-19 07:42:00,16.0,3.0,-100.00,WSW,250,0.0,0.0,57,-99.99,,,-99.99,0.000000,,2013-02-19 14:42:00,
2013-02-19 07:52:00,16.0,3.0,-100.00,WSW,250,0.0,0.0,57,-99.99,,,-99.99,0.000000,,2013-02-19 14:52:00,
2013-02-19 08:01:00,16.0,3.0,-100.00,WSW,250,0.0,0.0,57,-99.99,,,-99.99,0.000000,,2013-02-19 15:01:00,
2013-02-19 08:11:00,16.0,3.0,-100.00,WSW,250,0.0,0.0,57,-99.99,,,-99.99,0.000000,,2013-02-19 15:11:00,
2013-02-19 08:42:00,19.0,3.0,-100.00,WNW,283,2.0,8.0,48,-99.99,,,-99.99,15.000000,,2013-02-19 15:42:00,
2013-02-19 08:52:00,19.0,3.0,-100.00,WNW,283,2.0,8.0,48,-99.99,,,-99.99,15.000000,,2013-02-19 15:52:00,
2013-02-19 09:01:00,19.0,3.0,-100.00,WNW,283,2.0,8.0,48,-99.99,,,-99.99,15.000000,,2013-02-19 16:01:00,
2013-02-19 09:11:00,19.0,3.0,-100.00,WNW,283,2.0,8.0,48,-99.99,,,-99.99,15.000000,,2013-02-19 16:11:00,
2013-02-19 09:42:00,21.0,4.0,-100.00,SSW,209,3.0,6.0,47,-99.99,,,-99.99,56.000000,,2013-02-19 16:42:00,
2013-02-19 09:52:00,21.0,4.0,-100.00,SSW,209,3.0,6.0,47,-99.99,,,-99.99,56.000000,,2013-02-19 16:52:00,
2013-02-19 10:01:00,21.0,4.0,-100.00,SSW,209,3.0,6.0,47,-99.99,,,-99.99,56.000000,,2013-02-19 17:01:00,
2013-02-19 10:11:00,21.0,4.0,-100.00,SSW,209,3.0,6.0,47,-99.99,,,-99.99,56.000000,,2013-02-19 17:11:00,
2013-02-19 10:42:00,26.0,5.0,-100.00,East,89,3.0,5.0,40,-99.99,,,-99.99,135.000000,,2013-02-19 17:42:00,
2013-02-19 10:52:00,26.0,5.0,-100.00,East,89,3.0,5.0,40,-99.99,,,-99.99,135.000000,,2013-02-19 17:52:00,
2013-02-19 11:01:00,26.0,5.0,-100.00,East,89,3.0,5.0,40,-99.99,,,-99.99,135.000000,,2013-02-19 18:01:00,
2013-02-19 11:11:00,26.0,5.0,-100.00,East,89,3.0,5.0,40,-99.99,,,-99.99,135.000000,,2013-02-19 18:11:00,
2013-02-19 11:42:00,41.0,4.0,-100.00,East,89,3.0,6.0,21,-99.99,,,-99.99,578.000000,,2013-02-19 18:42:00,
2013-02-19 11:52:00,41.0,4.0,-100.00,East,89,3.0,6.0,21,-99.99,,,-99.99,578.000000,,2013-02-19 18:52:00,
2013-02-19 12:01:00,41.0,4.0,-100.00,East,89,3.0,6.0,21,-99.99,,,-99.99,578.000000,,2013-02-19 19:01:00,
2013-02-19 12:42:00,28.0,11.0,-100.00,East,89,9.0,13.0,48,-99.99,,,-99.99,699.000000,,2013-02-19 19:42:00,
2013-02-19 12:52:00,28.0,11.0,-100.00,East,89,9.0,13.0,48,-99.99,,,-99.99,699.000000,,2013-02-19 19:52:00,
2013-02-19 13:01:00,28.0,11.0,-100.00,East,89,9.0,13.0,48,-99.99,,,-99.99,699.000000,,2013-02-19 20:01:00,
2013-02-19 13:11:00,28.0,11.0,-100.00,East,89,9.0,13.0,48,-99.99,,,-99.99,699.000000,,2013-02-19 20:11:00,
2013-02-19 13:42:00,39.0,10.0,-100.00,NNW,345,7.0,19.0,30,-99.99,,,-99.99,799.000000,,2013-02-19 20:42:00,
2013-02-19 13:52:00,39.0,10.0,-100.00,NNW,345,7.0,19.0,30,-99.99,,,-99.99,799.000000,,2013-02-19 20:52:00,
2013-02-19 14:01:00,39.0,10.0,-100.00,NNW,345,7.0,19.0,30,-99.99,,,-99.99,799.000000,,2013-02-19 21:01:00,
2013-02-19 14:42:00,27.0,12.0,-100.00,East,90,11.0,21.0,52,-99.99,,,-99.99,722.000000,,2013-02-19 21:42:00,
2013-02-19 14:52:00,27.0,12.0,-100.00,East,90,11.0,21.0,52,-99.99,,,-99.99,722.000000,,2013-02-19 21:52:00,
2013-02-19 15:01:00,27.0,12.0,-100.00,East,90,11.0,21.0,52,-99.99,,,-99.99,722.000000,,2013-02-19 22:01:00,
2013-02-19 15:11:00,27.0,12.0,-100.00,East,90,11.0,21.0,52,-99.99,,,-99.99,722.000000,,2013-02-19 22:11:00,
2013-02-19 15:42:00,27.0,13.0,-100.00,East,87,8.0,15.0,54,-99.99,,,-99.99,602.000000,,2013-02-19 22:42:00,
2013-02-19 15:52:00,27.0,13.0,-100.00,East,87,8.0,15.0,54,-99.99,,,-99.99,602.000000,,2013-02-19 22:52:00,
2013-02-19 16:01:00,27.0,13.0,-100.00,East,87,8.0,15.0,54,-99.99,,,-99.99,602.000000,,2013-02-19 23:01:00,
2013-02-19 16:11:00,27.0,13.0,-100.00,East,87,8.0,15.0,54,-99.99,,,-99.99,602.000000,,2013-02-19 23:11:00,
2013-02-19 16:42:00,30.0,14.0,-100.00,ESE,102,4.0,12.0,51,-99.99,,,-99.99,383.000000,,2013-02-19 23:42:00,
2013-02-19 16:52:00,30.0,14.0,-100.00,ESE,102,4.0,12.0,51,-99.99,,,-99.99,383.000000,,2013-02-19 23:52:00,
2013-02-19 17:01:00,30.0,14.0,-100.00,ESE,102,4.0,12.0,51,-99.99,,,-99.99,383.000000,,2013-02-20 00:01:00,
2013-02-19 17:11:00,30.0,14.0,-100.00,ESE,102,4.0,12.0,51,-99.99,,,-99.99,383.000000,,2013-02-20 00:11:00,
2013-02-19 17:42:00,25.0,12.0,-100.00,ENE,74,4.0,7.0,58,-99.99,,,-99.99,145.000000,,2013-02-20 00:42:00,
2013-02-19 17:52:00,25.0,12.0,-100.00,ENE,74,4.0,7.0,58,-99.99,,,-99.99,145.000000,,2013-02-20 00:52:00,
2013-02-19 18:02:00,25.0,12.0,-100.00,ENE,74,4.0,7.0,58,-99.99,,,-99.99,145.000000,,2013-02-20 01:02:00,
2013-02-19 18:11:00,25.0,12.0,-100.00,ENE,74,4.0,7.0,58,-99.99,,,-99.99,145.000000,,2013-02-20 01:11:00,
2013-02-19 18:42:00,25.0,13.0,-100.00,West,278,3.0,4.0,60,-99.99,,,-99.99,22.000000,,2013-02-20 01:42:00,
2013-02-19 18:52:00,25.0,13.0,-100.00,West,278,3.0,4.0,60,-99.99,,,-99.99,22.000000,,2013-02-20 01:52:00,
2013-02-19 19:01:00,25.0,13.0,-100.00,West,278,3.0,4.0,60,-99.99,,,-99.99,22.000000,,2013-02-20 02:01:00,
2013-02-19 19:11:00,25.0,13.0,-100.00,West,278,3.0,4.0,60,-99.99,,,-99.99,22.000000,,2013-02-20 02:11:00,
2013-02-19 19:42:00,25.0,10.0,-100.00,West,273,5.0,8.0,52,-99.99,,,-99.99,0.000000,,2013-02-20 02:42:00,
2013-02-19 19:52:00,25.0,10.0,-100.00,West,273,5.0,8.0,52,-99.99,,,-99.99,0.000000,,2013-02-20 02:52:00,
2013-02-19 20:01:00,25.0,10.0,-100.00,West,273,5.0,8.0,52,-99.99,,,-99.99,0.000000,,2013-02-20 03:01:00,
2013-02-19 20:12:00,25.0,10.0,-100.00,West,273,5.0,8.0,52,-99.99,,,-99.99,0.000000,,2013-02-20 03:12:00,
2013-02-19 20:42:00,23.0,8.0,-100.00,SW,224,0.0,6.0,53,-99.99,,,-99.99,0.000000,,2013-02-20 03:42:00,
2013-02-19 20:52:00,23.0,8.0,-100.00,SW,224,0.0,6.0,53,-99.99,,,-99.99,0.000000,,2013-02-20 03:52:00,
2013-02-19 21:01:00,23.0,8.0,-100.00,SW,224,0.0,6.0,53,-99.99,,,-99.99,0.000000,,2013-02-20 04:01:00,
2013-02-19 21:11:00,23.0,8.0,-100.00,SW,224,0.0,6.0,53,-99.99,,,-99.99,0.000000,,2013-02-20 04:11:00,
2013-02-19 21:42:00,23.0,8.0,-100.00,WSW,255,0.0,0.0,52,-99.99,,,-99.99,0.000000,,2013-02-20 04:42:00,
2013-02-19 21:52:00,23.0,8.0,-100.00,WSW,255,0.0,0.0,52,-99.99,,,-99.99,0.000000,,2013-02-20 04:52:00,
2013-02-19 22:02:00,23.0,8.0,-100.00,WSW,255,0.0,0.0,52,-99.99,,,-99.99,0.000000,,2013-02-20 05:02:00,
2013-02-19 22:12:00,23.0,8.0,-100.00,WSW,255,0.0,0.0,52,-99.99,,,-99.99,0.000000,,2013-02-20 05:12:00,
2013-02-19 22:43:00,23.0,9.0,-100.00,West,263,0.0,0.0,54,-99.99,,,-99.99,0.000000,,2013-02-20 05:43:00,
2013-02-19 22:52:00,23.0,9.0,-100.00,West,263,0.0,0.0,54,-99.99,,,-99.99,0.000000,,2013-02-20 05:52:00,
2013-02-19 23:01:00,23.0,9.0,-100.00,West,263,0.0,0.0,54,-99.99,,,-99.99,0.000000,,2013-02-20 06:01:00,
2013-02-19 23:11:00,23.0,9.0,-100.00,West,263,0.0,0.0,54,-99.99,,,-99.99,0.000000,,2013-02-20 06:11:00,
2013-02-19 23:42:00,23.0,9.0,-100.00,West,268,0.0,0.0,55,-99.99,,,-99.99,0.000000,,2013-02-20 06:42:00,
2013-02-19 23:52:00,23.0,9.0,-100.00,West,268,0.0,0.0,55,-99.99,,,-99.99,0.000000,,2013-02-20 06:52:00,